Terminal Aerodrome Forecast
Issued by NWS Chicago, IL

Home | Current Version | Previous Version | Graphics & Text | Print | Product List | Glossary On
Versions: 1 2 3 4 5 6 7 8 9 10 11 12 13 14 15 16 17 18 19 20 21 22 23 24 25
458
FTUS43 KLOT 032059 AAA
TAFRFD
TAF AMD
KRFD 032059Z 0321/0418 30015G25KT P6SM OVC015
     FM040100 29012G18KT P6SM OVC020
     FM041300 28011KT P6SM SCT018 BKN120=

USA.gov is the U.S. government's official web portal to all federal, state and local government web resources and services.